Time;durP1;ratioP1;P1;durP2;ratioP2;P2;SDS_P1;SDS_P2;PMS_P1;PMS_P2;Temp;Humidity;BMP_temperature;BMP_pressure;BME280_temperature;BME280_humidity;BME280_pressure;Samples;Min_cycle;Max_cycle;Signal;HPM_P1;HPM_P2
2023/05/16 00:00:33;;;;;;;11.50;4.60;;;;;;;;;;10490925;28;21058;-77
2023/05/16 00:05:35;;;;;;;4.88;4.47;;;;;;;;;;10462410;28;20714;-78
2023/05/16 00:10:36;;;;;;;4.22;3.92;;;;;;;;;;10478827;28;20221;-78
2023/05/16 00:15:38;;;;;;;5.05;4.65;;;;;;;;;;10477547;28;20217;-75
2023/05/16 00:20:40;;;;;;;6.25;5.10;;;;;;;;;;10474264;28;20214;-77
2023/05/16 00:25:41;;;;;;;5.10;4.72;;;;;;;;;;10477083;28;20220;-78
2023/05/16 00:30:42;;;;;;;6.15;5.57;;;;;;;;;;10484744;28;20763;-76
2023/05/16 00:35:43;;;;;;;6.75;5.97;;;;;;;;;;10457980;28;20226;-75
2023/05/16 00:40:45;;;;;;;7.53;5.88;;;;;;;;;;10480428;28;20222;-77
2023/05/16 00:45:46;;;;;;;6.30;5.65;;;;;;;;;;10454156;28;20217;-76
2023/05/16 00:50:48;;;;;;;6.95;6.18;;;;;;;;;;10439798;28;20237;-76
2023/05/16 00:55:49;;;;;;;5.82;5.28;;;;;;;;;;10476937;28;20736;-79
2023/05/16 01:00:50;;;;;;;8.38;6.50;;;;;;;;;;10456138;28;20230;-74
2023/05/16 01:05:52;;;;;;;9.13;6.30;;;;;;;;;;10453566;28;20213;-75
2023/05/16 01:11:00;;;;;;;7.93;6.38;;;;;;;;;;10451941;28;20847;-74
2023/05/16 01:16:15;;;;;;;7.68;6.45;;;;;;;;;;10435599;28;20332;-77
2023/05/16 01:21:20;;;;;;;6.05;5.55;;;;;;;;;;10449020;28;20699;-77
2023/05/16 01:26:22;;;;;;;4.15;3.78;;;;;;;;;;10450590;28;20298;-77
2023/05/16 01:31:23;;;;;;;6.38;3.90;;;;;;;;;;10452677;28;20274;-80
2023/05/16 01:36:30;;;;;;;4.45;4.05;;;;;;;;;;10458136;28;20217;-74
2023/05/16 01:41:51;;;;;;;5.45;4.25;;;;;;;;;;10447445;28;20306;-75
2023/05/16 01:46:56;;;;;;;4.43;4.03;;;;;;;;;;10437254;28;20694;-75
2023/05/16 01:52:01;;;;;;;3.85;3.50;;;;;;;;;;10453443;28;20230;-75
2023/05/16 01:57:03;;;;;;;3.33;3.13;;;;;;;;;;10469351;28;20229;-77
2023/05/16 02:02:04;;;;;;;4.35;3.92;;;;;;;;;;10458841;28;20225;-76
2023/05/16 02:07:06;;;;;;;2.83;2.72;;;;;;;;;;10450918;28;20298;-76
2023/05/16 02:12:07;;;;;;;3.88;3.55;;;;;;;;;;10468991;28;20629;-76
2023/05/16 02:17:08;;;;;;;3.05;2.95;;;;;;;;;;10471407;28;20221;-74
2023/05/16 02:22:10;;;;;;;2.95;2.78;;;;;;;;;;10458304;28;20710;-76
2023/05/16 02:27:11;;;;;;;1.90;1.80;;;;;;;;;;10476479;28;20209;-78
2023/05/16 02:32:12;;;;;;;2.78;2.58;;;;;;;;;;10469074;28;20720;-75
2023/05/16 02:37:13;;;;;;;2.63;2.53;;;;;;;;;;10456621;28;20286;-78
2023/05/16 02:42:15;;;;;;;2.40;2.30;;;;;;;;;;10480405;28;20213;-77
2023/05/16 02:47:16;;;;;;;1.60;1.60;;;;;;;;;;10475172;28;20218;-76
2023/05/16 02:52:21;;;;;;;2.75;2.25;;;;;;;;;;10477578;28;20312;-78
2023/05/16 02:57:22;;;;;;;2.97;1.88;;;;;;;;;;10455964;28;22003;-77
2023/05/16 03:02:23;;;;;;;2.13;1.90;;;;;;;;;;10454591;28;20223;-77
2023/05/16 03:07:24;;;;;;;3.50;1.85;;;;;;;;;;10486695;28;20218;-76
2023/05/16 03:12:25;;;;;;;1.90;1.80;;;;;;;;;;10484422;28;20216;-76
2023/05/16 03:17:27;;;;;;;1.52;1.52;;;;;;;;;;10452999;28;20598;-75
2023/05/16 03:22:28;;;;;;;2.90;1.58;;;;;;;;;;10475513;28;20218;-74
2023/05/16 03:27:29;;;;;;;2.15;1.58;;;;;;;;;;10481312;28;20355;-76
2023/05/16 03:32:30;;;;;;;1.25;1.17;;;;;;;;;;10467389;28;20244;-76
2023/05/16 03:37:31;;;;;;;3.63;1.40;;;;;;;;;;10459382;28;20213;-78
2023/05/16 03:42:32;;;;;;;1.60;1.30;;;;;;;;;;10458780;28;20593;-76
2023/05/16 03:47:33;;;;;;;1.35;1.27;;;;;;;;;;10475193;28;20245;-76
2023/05/16 03:52:34;;;;;;;1.33;1.15;;;;;;;;;;10485109;28;20218;-76
2023/05/16 03:57:37;;;;;;;2.15;1.35;;;;;;;;;;10464743;28;20217;-75
2023/05/16 04:02:42;;;;;;;2.90;1.20;;;;;;;;;;10479690;28;20236;-76
2023/05/16 04:07:43;;;;;;;1.00;1.00;;;;;;;;;;10443061;28;20237;-76
2023/05/16 04:12:45;;;;;;;1.35;1.25;;;;;;;;;;10488980;28;20763;-76
2023/05/16 04:17:46;;;;;;;2.15;1.67;;;;;;;;;;10442769;28;20210;-76
2023/05/16 04:22:47;;;;;;;3.13;1.02;;;;;;;;;;10462879;28;20220;-76
2023/05/16 04:27:48;;;;;;;4.90;1.23;;;;;;;;;;10448709;28;20210;-76
2023/05/16 04:32:49;;;;;;;5.05;1.67;;;;;;;;;;10470627;28;20221;-77
2023/05/16 04:37:50;;;;;;;4.32;1.38;;;;;;;;;;10473280;28;20762;-75
2023/05/16 04:42:53;;;;;;;2.45;1.20;;;;;;;;;;10466556;28;20229;-79
2023/05/16 04:47:54;;;;;;;2.80;0.80;;;;;;;;;;10470594;28;20642;-78
2023/05/16 04:52:55;;;;;;;1.75;1.20;;;;;;;;;;10454790;28;20316;-78
2023/05/16 04:57:56;;;;;;;1.80;0.93;;;;;;;;;;10439735;28;20218;-78
2023/05/16 05:02:57;;;;;;;1.50;0.93;;;;;;;;;;10465800;28;20672;-78
2023/05/16 05:07:59;;;;;;;1.15;0.95;;;;;;;;;;10474407;28;20218;-78
2023/05/16 05:13:00;;;;;;;4.25;1.02;;;;;;;;;;10477043;28;20214;-77
2023/05/16 05:18:01;;;;;;;0.98;0.70;;;;;;;;;;10468245;28;20209;-77
2023/05/16 05:23:02;;;;;;;2.38;2.28;;;;;;;;;;10456439;28;20221;-76
2023/05/16 05:28:03;;;;;;;0.95;0.95;;;;;;;;;;10457254;28;20224;-80
2023/05/16 05:33:04;;;;;;;1.08;0.93;;;;;;;;;;10474337;28;20263;-76
2023/05/16 05:38:06;;;;;;;2.35;1.00;;;;;;;;;;10478852;28;20939;-76
2023/05/16 05:43:06;;;;;;;2.53;1.00;;;;;;;;;;10430856;28;20313;-78
2023/05/16 05:48:08;;;;;;;4.07;0.80;;;;;;;;;;10474448;28;20217;-76
2023/05/16 05:53:08;;;;;;;0.70;0.70;;;;;;;;;;10465675;28;20216;-77
2023/05/16 05:58:10;;;;;;;2.25;0.60;;;;;;;;;;10482622;28;20220;-75
2023/05/16 06:03:11;;;;;;;0.65;0.60;;;;;;;;;;10463469;28;20225;-77
2023/05/16 06:08:12;;;;;;;1.55;0.63;;;;;;;;;;10469088;28;20217;-77
2023/05/16 06:13:13;;;;;;;2.85;0.43;;;;;;;;;;10484989;28;20217;-73
2023/05/16 06:18:14;;;;;;;1.35;0.60;;;;;;;;;;10468305;28;20309;-79
2023/05/16 06:23:15;;;;;;;0.93;0.77;;;;;;;;;;10447383;28;20288;-77
2023/05/16 06:28:16;;;;;;;1.13;0.50;;;;;;;;;;10468493;28;20219;-78
2023/05/16 06:33:18;;;;;;;0.60;0.50;;;;;;;;;;10468382;28;20222;-78
2023/05/16 06:38:19;;;;;;;1.00;0.73;;;;;;;;;;10482426;28;20225;-78
2023/05/16 06:43:20;;;;;;;2.15;1.02;;;;;;;;;;10482245;28;20603;-76
2023/05/16 06:48:22;;;;;;;0.82;0.82;;;;;;;;;;10479689;28;20221;-78
2023/05/16 06:53:23;;;;;;;1.30;1.20;;;;;;;;;;10489339;28;20226;-77
2023/05/16 06:58:24;;;;;;;0.77;0.70;;;;;;;;;;10491315;28;20232;-75
2023/05/16 07:03:25;;;;;;;2.47;0.75;;;;;;;;;;10492418;28;20202;-77
2023/05/16 07:08:26;;;;;;;0.70;0.70;;;;;;;;;;10476560;28;20297;-77
2023/05/16 07:13:27;;;;;;;2.05;0.90;;;;;;;;;;10480340;28;20214;-77
2023/05/16 07:18:28;;;;;;;3.42;1.85;;;;;;;;;;10479131;28;20260;-78
2023/05/16 07:23:29;;;;;;;4.82;2.28;;;;;;;;;;10463364;28;20220;-77
2023/05/16 07:28:30;;;;;;;8.57;1.10;;;;;;;;;;10494455;28;20392;-77
2023/05/16 07:33:31;;;;;;;8.57;0.90;;;;;;;;;;10471587;28;20709;-78
2023/05/16 07:38:32;;;;;;;2.00;1.15;;;;;;;;;;10488395;28;20713;-78
2023/05/16 07:43:34;;;;;;;3.28;1.67;;;;;;;;;;10453166;28;20318;-79
2023/05/16 07:48:35;;;;;;;5.82;2.05;;;;;;;;;;10452294;28;20257;-77
2023/05/16 07:53:36;;;;;;;3.78;1.30;;;;;;;;;;10465993;28;20222;-78
2023/05/16 07:58:50;;;;;;;;;;;;;;;;;;;;;
2023/05/16 08:03:57;;;;;;;5.40;1.00;;;;;;;;;;10463230;28;20221;-79
2023/05/16 08:08:58;;;;;;;1.27;0.90;;;;;;;;;;10487308;28;20205;-77
2023/05/16 08:13:59;;;;;;;2.38;0.93;;;;;;;;;;10467708;28;20213;-78
2023/05/16 08:19:00;;;;;;;3.60;1.45;;;;;;;;;;10457594;28;20226;-79
2023/05/16 08:24:04;;;;;;;1.73;0.60;;;;;;;;;;10483865;28;20218;-78
2023/05/16 08:29:05;;;;;;;1.75;0.50;;;;;;;;;;10468485;28;20234;-78
2023/05/16 08:34:06;;;;;;;1.95;0.70;;;;;;;;;;10452292;28;20596;-76
2023/05/16 08:39:10;;;;;;;7.22;0.75;;;;;;;;;;10458229;28;20746;-76
2023/05/16 08:44:12;;;;;;;1.95;0.50;;;;;;;;;;10484439;28;20229;-77
2023/05/16 08:49:13;;;;;;;3.58;0.70;;;;;;;;;;10484731;28;20318;-77
2023/05/16 08:54:14;;;;;;;3.03;0.60;;;;;;;;;;10487288;28;20218;-77
2023/05/16 08:59:16;;;;;;;3.17;0.43;;;;;;;;;;10484091;28;20214;-77
2023/05/16 09:04:17;;;;;;;3.83;0.80;;;;;;;;;;10477446;28;20222;-78
2023/05/16 09:09:21;;;;;;;3.78;0.40;;;;;;;;;;10483010;28;20747;-79
2023/05/16 09:14:34;;;;;;;2.80;1.00;;;;;;;;;;10459516;28;20213;-77
2023/05/16 09:19:42;;;;;;;3.92;0.90;;;;;;;;;;10451531;28;20232;-77
2023/05/16 09:24:44;;;;;;;1.95;0.47;;;;;;;;;;10486732;28;20220;-78
2023/05/16 09:29:49;;;;;;;2.22;0.45;;;;;;;;;;10485773;28;20216;-78
2023/05/16 09:34:52;;;;;;;3.35;0.65;;;;;;;;;;10486040;28;20302;-77
2023/05/16 09:39:53;;;;;;;4.03;0.90;;;;;;;;;;10480632;28;20359;-78
2023/05/16 09:44:55;;;;;;;3.03;0.63;;;;;;;;;;10452264;28;20214;-77
2023/05/16 09:49:57;;;;;;;3.10;0.80;;;;;;;;;;10486039;28;20214;-77
2023/05/16 09:54:58;;;;;;;2.03;0.47;;;;;;;;;;10461724;28;20704;-76
2023/05/16 10:00:00;;;;;;;6.97;0.75;;;;;;;;;;10462306;28;20221;-78
2023/05/16 10:05:14;;;;;;;4.75;0.60;;;;;;;;;;10484525;28;20237;-78
2023/05/16 10:10:19;;;;;;;3.05;0.43;;;;;;;;;;10465556;28;20208;-80
2023/05/16 10:15:20;;;;;;;3.80;0.60;;;;;;;;;;10461647;28;20190;-82
2023/05/16 10:20:24;;;;;;;3.15;0.70;;;;;;;;;;10482281;28;20578;-77
2023/05/16 10:25:29;;;;;;;5.18;0.80;;;;;;;;;;10484354;28;20977;-80
2023/05/16 10:30:36;;;;;;;2.45;0.50;;;;;;;;;;10478374;28;20253;-80
2023/05/16 10:35:37;;;;;;;3.38;0.55;;;;;;;;;;10473304;28;20243;-79
2023/05/16 10:40:39;;;;;;;13.65;0.60;;;;;;;;;;10473841;28;20237;-78
2023/05/16 10:45:40;;;;;;;0.63;0.38;;;;;;;;;;10449484;28;20225;-77
2023/05/16 10:50:42;;;;;;;2.13;0.50;;;;;;;;;;10447324;28;20700;-79
2023/05/16 10:55:50;;;;;;;2.10;0.50;;;;;;;;;;10468924;28;20222;-78
2023/05/16 11:01:11;;;;;;;3.97;0.60;;;;;;;;;;10475961;28;20218;-78
2023/05/16 11:06:24;;;;;;;1.48;0.35;;;;;;;;;;10471745;28;21155;-77
2023/05/16 11:11:43;;;;;;;1.02;0.30;;;;;;;;;;10486820;28;20214;-77
2023/05/16 11:16:48;;;;;;;3.55;0.50;;;;;;;;;;10488978;28;20221;-77
2023/05/16 11:22:08;;;;;;;1.65;0.30;;;;;;;;;;10494313;28;20225;-78
2023/05/16 11:27:12;;;;;;;2.83;0.52;;;;;;;;;;10482534;28;20478;-77
2023/05/16 11:32:13;;;;;;;0.60;0.43;;;;;;;;;;10486492;28;20221;-78
2023/05/16 11:37:16;;;;;;;1.33;0.30;;;;;;;;;;10489328;28;20218;-77
2023/05/16 11:42:17;;;;;;;0.40;0.30;;;;;;;;;;10464582;28;20298;-77
2023/05/16 11:47:18;;;;;;;3.88;0.30;;;;;;;;;;10491632;28;20257;-79
2023/05/16 11:52:20;;;;;;;2.30;0.50;;;;;;;;;;10486781;28;20229;-78
2023/05/16 11:57:21;;;;;;;0.82;0.30;;;;;;;;;;10451088;28;20213;-78
2023/05/16 12:02:29;;;;;;;1.17;0.40;;;;;;;;;;10487449;28;20244;-74
2023/05/16 12:07:31;;;;;;;0.55;0.25;;;;;;;;;;10447032;28;20214;-78
2023/05/16 12:12:32;;;;;;;3.90;0.40;;;;;;;;;;10487497;28;20277;-78
2023/05/16 12:17:34;;;;;;;1.75;0.30;;;;;;;;;;10460640;28;20713;-78
2023/05/16 12:22:35;;;;;;;0.20;0.20;;;;;;;;;;10454684;28;20754;-76
2023/05/16 12:27:36;;;;;;;5.10;0.30;;;;;;;;;;10487433;28;20765;-77
2023/05/16 12:32:37;;;;;;;2.67;0.30;;;;;;;;;;10482592;28;20228;-78
2023/05/16 12:37:38;;;;;;;2.45;0.20;;;;;;;;;;10484929;28;20209;-77
2023/05/16 12:42:40;;;;;;;1.40;0.40;;;;;;;;;;10481906;28;20271;-77
2023/05/16 12:47:41;;;;;;;2.05;0.30;;;;;;;;;;10486289;28;20220;-77
2023/05/16 12:52:58;;;;;;;0.60;0.20;;;;;;;;;;10482025;28;20332;-79
2023/05/16 12:58:00;;;;;;;0.35;0.13;;;;;;;;;;10469536;28;20222;-78
2023/05/16 13:03:01;;;;;;;0.95;0.30;;;;;;;;;;10469434;28;20304;-79
2023/05/16 13:08:03;;;;;;;2.72;0.30;;;;;;;;;;10436577;28;20210;-77
2023/05/16 13:13:04;;;;;;;0.68;0.20;;;;;;;;;;10481703;28;20247;-76
2023/05/16 13:18:05;;;;;;;11.82;0.38;;;;;;;;;;10468958;28;20228;-78
2023/05/16 13:23:06;;;;;;;1.80;0.60;;;;;;;;;;10487170;28;20699;-79
2023/05/16 13:28:07;;;;;;;0.52;0.40;;;;;;;;;;10486580;28;20209;-79
2023/05/16 13:33:12;;;;;;;1.15;0.20;;;;;;;;;;10486018;28;20222;-78
2023/05/16 13:38:16;;;;;;;1.88;0.28;;;;;;;;;;10460450;28;20214;-77
2023/05/16 13:43:17;;;;;;;0.80;0.30;;;;;;;;;;10480429;28;20687;-76
2023/05/16 13:48:18;;;;;;;1.70;0.50;;;;;;;;;;10460136;28;20222;-77
2023/05/16 13:53:19;;;;;;;1.70;0.30;;;;;;;;;;10481186;28;20224;-75
2023/05/16 13:58:21;;;;;;;1.63;0.20;;;;;;;;;;10481315;28;20221;-80
2023/05/16 14:03:22;;;;;;;4.30;0.40;;;;;;;;;;10464440;28;20218;-76
2023/05/16 14:08:23;;;;;;;1.00;0.20;;;;;;;;;;10482132;28;20248;-78
2023/05/16 14:13:24;;;;;;;0.50;0.20;;;;;;;;;;10451379;28;20583;-74
2023/05/16 14:18:25;;;;;;;1.58;0.30;;;;;;;;;;10480969;28;20220;-77
2023/05/16 14:23:27;;;;;;;2.33;0.32;;;;;;;;;;10488219;28;20649;-77
2023/05/16 14:28:28;;;;;;;1.15;0.20;;;;;;;;;;10451384;28;20214;-79
2023/05/16 14:33:29;;;;;;;1.45;0.25;;;;;;;;;;10486770;28;20251;-77
2023/05/16 14:38:31;;;;;;;2.38;0.40;;;;;;;;;;10471592;28;20225;-78
2023/05/16 14:43:32;;;;;;;0.10;0.10;;;;;;;;;;10448543;28;20216;-78
2023/05/16 14:48:33;;;;;;;0.38;0.25;;;;;;;;;;10469187;28;20214;-78
2023/05/16 14:53:34;;;;;;;1.77;0.20;;;;;;;;;;10452630;28;20218;-77
2023/05/16 14:58:35;;;;;;;0.40;0.30;;;;;;;;;;10458317;28;20217;-78
2023/05/16 15:03:36;;;;;;;0.52;0.17;;;;;;;;;;10444259;28;20213;-76
2023/05/16 15:08:37;;;;;;;10.82;0.20;;;;;;;;;;10469636;28;20241;-75
2023/05/16 15:13:38;;;;;;;2.03;0.30;;;;;;;;;;10471734;28;20293;-76
2023/05/16 15:18:40;;;;;;;6.70;2.78;;;;;;;;;;10453567;28;20226;-74
2023/05/16 15:23:42;;;;;;;2.80;0.30;;;;;;;;;;10468008;28;20220;-76
2023/05/16 15:28:43;;;;;;;0.80;0.30;;;;;;;;;;10459135;28;20228;-74
2023/05/16 15:33:44;;;;;;;0.28;0.28;;;;;;;;;;10460107;28;20229;-77
2023/05/16 15:38:46;;;;;;;1.23;0.50;;;;;;;;;;10474288;28;20210;-77
2023/05/16 15:43:47;;;;;;;0.30;0.30;;;;;;;;;;10474552;28;20232;-77
2023/05/16 15:48:48;;;;;;;0.68;0.30;;;;;;;;;;10474912;28;20228;-75
2023/05/16 15:53:49;;;;;;;0.35;0.30;;;;;;;;;;10466259;28;20309;-77
2023/05/16 15:58:50;;;;;;;2.60;0.30;;;;;;;;;;10445937;28;20396;-79
2023/05/16 16:03:51;;;;;;;0.98;0.47;;;;;;;;;;10463436;28;20229;-78
2023/05/16 16:08:52;;;;;;;0.43;0.30;;;;;;;;;;10432884;28;20222;-78
2023/05/16 16:13:53;;;;;;;1.35;0.35;;;;;;;;;;10439135;28;20302;-78
2023/05/16 16:18:54;;;;;;;0.43;0.40;;;;;;;;;;10438839;28;20214;-78
2023/05/16 16:23:55;;;;;;;1.58;0.38;;;;;;;;;;10459113;28;20226;-77
2023/05/16 16:28:56;;;;;;;1.55;0.25;;;;;;;;;;10446494;28;20221;-77
2023/05/16 16:33:57;;;;;;;4.15;0.50;;;;;;;;;;10468581;28;20206;-77
2023/05/16 16:38:58;;;;;;;3.17;0.50;;;;;;;;;;10472532;28;20215;-76
2023/05/16 16:44:00;;;;;;;0.40;0.40;;;;;;;;;;10454495;28;20223;-76
2023/05/16 16:49:01;;;;;;;1.02;0.60;;;;;;;;;;10448328;28;20700;-77
2023/05/16 16:54:02;;;;;;;0.28;0.28;;;;;;;;;;10455876;28;20776;-77
2023/05/16 16:59:03;;;;;;;1.48;0.60;;;;;;;;;;10449525;28;20217;-76
2023/05/16 17:04:05;;;;;;;1.85;0.38;;;;;;;;;;10460763;28;20213;-75
2023/05/16 17:09:12;;;;;;;0.40;0.40;;;;;;;;;;10452153;28;21031;-74
2023/05/16 17:14:13;;;;;;;1.27;0.43;;;;;;;;;;10465576;28;20217;-76
2023/05/16 17:19:14;;;;;;;0.45;0.45;;;;;;;;;;10439111;28;21918;-76
2023/05/16 17:24:15;;;;;;;0.40;0.40;;;;;;;;;;10484503;28;20214;-74
2023/05/16 17:29:16;;;;;;;2.15;0.52;;;;;;;;;;10452695;28;20210;-76
2023/05/16 17:34:17;;;;;;;1.00;0.40;;;;;;;;;;10479140;28;20218;-76
2023/05/16 17:39:19;;;;;;;3.72;0.52;;;;;;;;;;10457483;28;20940;-75
2023/05/16 17:44:20;;;;;;;0.40;0.40;;;;;;;;;;10456578;28;20619;-75
2023/05/16 17:49:22;;;;;;;1.52;0.30;;;;;;;;;;10457170;28;20210;-74
2023/05/16 17:54:25;;;;;;;3.00;0.30;;;;;;;;;;10473854;28;20214;-74
2023/05/16 17:59:27;;;;;;;1.33;0.30;;;;;;;;;;10466837;28;20236;-74
2023/05/16 18:04:28;;;;;;;5.22;0.60;;;;;;;;;;10421975;28;20733;-76
2023/05/16 18:09:29;;;;;;;0.38;0.20;;;;;;;;;;10459739;28;20210;-77
2023/05/16 18:14:30;;;;;;;0.85;0.30;;;;;;;;;;10472935;28;20255;-76
2023/05/16 18:19:31;;;;;;;1.50;0.30;;;;;;;;;;10435608;28;20365;-76
2023/05/16 18:24:32;;;;;;;2.03;0.30;;;;;;;;;;10449947;28;20213;-77
2023/05/16 18:29:33;;;;;;;2.67;0.20;;;;;;;;;;10464027;28;20304;-75
2023/05/16 18:34:34;;;;;;;0.90;0.30;;;;;;;;;;10430096;28;20328;-76
2023/05/16 18:39:36;;;;;;;2.63;0.30;;;;;;;;;;10461443;28;20226;-76
2023/05/16 18:44:37;;;;;;;2.13;0.25;;;;;;;;;;10470471;28;20576;-76
2023/05/16 18:49:38;;;;;;;0.22;0.20;;;;;;;;;;10453286;28;20421;-77
2023/05/16 18:54:39;;;;;;;1.20;0.20;;;;;;;;;;10473539;28;20252;-75
2023/05/16 18:59:40;;;;;;;2.47;0.20;;;;;;;;;;10468117;28;20221;-75
2023/05/16 19:04:41;;;;;;;0.88;0.40;;;;;;;;;;10472687;28;20255;-74
2023/05/16 19:09:45;;;;;;;1.77;0.38;;;;;;;;;;10450180;28;20222;-74
2023/05/16 19:14:48;;;;;;;1.35;0.40;;;;;;;;;;10451640;28;20277;-74
2023/05/16 19:19:49;;;;;;;1.23;0.30;;;;;;;;;;10467561;28;20221;-74
2023/05/16 19:24:50;;;;;;;0.40;0.40;;;;;;;;;;10450003;28;20308;-75
2023/05/16 19:29:51;;;;;;;0.75;0.30;;;;;;;;;;10483208;28;20221;-75
2023/05/16 19:34:52;;;;;;;0.50;0.50;;;;;;;;;;10446633;28;20220;-74
2023/05/16 19:39:53;;;;;;;2.28;0.40;;;;;;;;;;10464344;28;20225;-76
2023/05/16 19:44:54;;;;;;;1.45;0.20;;;;;;;;;;10472326;28;20225;-75
2023/05/16 19:49:55;;;;;;;3.10;0.30;;;;;;;;;;10444909;28;20217;-75
2023/05/16 19:54:56;;;;;;;2.88;0.20;;;;;;;;;;10472804;28;20213;-76
2023/05/16 19:59:57;;;;;;;4.15;0.40;;;;;;;;;;10439903;28;20605;-76
2023/05/16 20:04:58;;;;;;;1.80;0.38;;;;;;;;;;10463718;28;21242;-75
2023/05/16 20:09:59;;;;;;;1.65;0.30;;;;;;;;;;10468650;28;20936;-74
2023/05/16 20:15:00;;;;;;;0.30;0.30;;;;;;;;;;10474369;28;22012;-75
2023/05/16 20:20:02;;;;;;;0.40;0.35;;;;;;;;;;10471959;28;20217;-75
2023/05/16 20:25:03;;;;;;;0.77;0.20;;;;;;;;;;10455576;28;20241;-73
2023/05/16 20:30:05;;;;;;;2.05;0.40;;;;;;;;;;10468077;28;20225;-75
2023/05/16 20:35:08;;;;;;;1.17;0.45;;;;;;;;;;10451005;28;20202;-74
2023/05/16 20:40:10;;;;;;;1.55;0.30;;;;;;;;;;10473408;28;20630;-75
2023/05/16 20:45:11;;;;;;;0.63;0.35;;;;;;;;;;10451816;28;20213;-72
2023/05/16 20:50:12;;;;;;;0.50;0.50;;;;;;;;;;10466398;28;20222;-74
2023/05/16 20:55:13;;;;;;;4.40;0.50;;;;;;;;;;10484316;28;20589;-74
2023/05/16 21:00:14;;;;;;;0.30;0.30;;;;;;;;;;10465290;28;20202;-74
2023/05/16 21:05:15;;;;;;;0.63;0.20;;;;;;;;;;10461583;28;20257;-73
2023/05/16 21:10:16;;;;;;;0.98;0.32;;;;;;;;;;10484336;28;20703;-73
2023/05/16 21:15:17;;;;;;;2.40;0.60;;;;;;;;;;10459504;28;20228;-72
2023/05/16 21:20:19;;;;;;;1.80;0.50;;;;;;;;;;10452797;28;20193;-72
2023/05/16 21:25:20;;;;;;;3.00;0.52;;;;;;;;;;10483257;28;20858;-73
2023/05/16 21:30:21;;;;;;;1.02;0.57;;;;;;;;;;10464162;28;20631;-74
2023/05/16 21:35:22;;;;;;;2.83;0.50;;;;;;;;;;10454379;28;20263;-73
2023/05/16 21:40:24;;;;;;;1.85;0.75;;;;;;;;;;10482479;28;20220;-73
2023/05/16 21:45:25;;;;;;;1.90;0.68;;;;;;;;;;10474613;28;21164;-73
2023/05/16 21:50:26;;;;;;;2.58;0.75;;;;;;;;;;10443657;28;20214;-74
2023/05/16 21:55:27;;;;;;;2.55;0.50;;;;;;;;;;10446922;28;20282;-74
2023/05/16 22:00:28;;;;;;;1.15;0.43;;;;;;;;;;10447696;28;20228;-72
2023/05/16 22:05:29;;;;;;;1.20;0.50;;;;;;;;;;10477314;28;20314;-73
2023/05/16 22:10:30;;;;;;;1.90;0.65;;;;;;;;;;10459965;28;20282;-73
2023/05/16 22:15:31;;;;;;;2.92;0.60;;;;;;;;;;10463211;28;20225;-75
2023/05/16 22:20:32;;;;;;;0.70;0.60;;;;;;;;;;10449662;28;20320;-73
2023/05/16 22:25:33;;;;;;;2.85;0.77;;;;;;;;;;10487649;28;20263;-73
2023/05/16 22:30:34;;;;;;;1.17;0.65;;;;;;;;;;10477889;28;20218;-76
2023/05/16 22:35:35;;;;;;;2.58;0.73;;;;;;;;;;10463658;28;20316;-72
2023/05/16 22:40:36;;;;;;;2.60;0.63;;;;;;;;;;10437434;28;20222;-73
2023/05/16 22:45:37;;;;;;;1.42;0.70;;;;;;;;;;10473310;28;20580;-73
2023/05/16 22:50:38;;;;;;;1.58;0.55;;;;;;;;;;10484168;28;20227;-72
2023/05/16 22:55:39;;;;;;;1.80;0.60;;;;;;;;;;10471729;28;20224;-74
2023/05/16 23:00:40;;;;;;;1.02;0.60;;;;;;;;;;10483685;28;20232;-72
2023/05/16 23:05:41;;;;;;;4.00;1.20;;;;;;;;;;10480138;28;20224;-73
2023/05/16 23:10:42;;;;;;;0.82;0.80;;;;;;;;;;10463888;28;20249;-72
2023/05/16 23:15:43;;;;;;;1.60;0.73;;;;;;;;;;10479195;28;20309;-74
2023/05/16 23:20:44;;;;;;;1.05;0.70;;;;;;;;;;10478322;28;20222;-73
2023/05/16 23:25:47;;;;;;;2.88;1.08;;;;;;;;;;10461696;28;20965;-73
2023/05/16 23:30:48;;;;;;;2.45;0.80;;;;;;;;;;10452937;28;20704;-75
2023/05/16 23:35:49;;;;;;;5.18;0.90;;;;;;;;;;10469687;28;20225;-74
2023/05/16 23:40:50;;;;;;;3.58;0.95;;;;;;;;;;10471899;28;20217;-73
2023/05/16 23:45:51;;;;;;;1.10;0.75;;;;;;;;;;10453733;28;20225;-73
2023/05/16 23:50:52;;;;;;;1.00;0.80;;;;;;;;;;10451413;28;20217;-72
2023/05/16 23:55:53;;;;;;;1.95;0.90;;;;;;;;;;10483365;28;20611;-72
